createdAt,value
2023-05-19T05:03:15.259Z,10.70
2023-05-19T05:08:23.128Z,10.70
2023-05-19T05:13:27.514Z,10.80
2023-05-19T05:18:33.684Z,10.90
2023-05-19T05:23:38.077Z,10.90
2023-05-19T05:28:43.047Z,11.00
2023-05-19T05:33:48.780Z,11.10
2023-05-19T05:38:54.523Z,11.20
2023-05-19T05:43:59.726Z,11.30
2023-05-19T05:49:05.688Z,11.50
2023-05-19T05:54:13.015Z,11.60
2023-05-19T05:59:17.823Z,11.80
2023-05-19T06:04:23.055Z,11.90
2023-05-19T06:09:26.704Z,12.10
2023-05-19T06:14:30.778Z,12.20
2023-05-19T06:19:42.371Z,12.40
2023-05-19T06:24:46.412Z,12.60
2023-05-19T06:29:50.013Z,12.80
2023-05-19T06:34:55.263Z,13.10
2023-05-19T06:39:58.857Z,13.30
2023-05-19T06:45:03.136Z,13.50
2023-05-19T06:50:08.851Z,13.60
2023-05-19T07:00:30.578Z,13.90
2023-05-19T07:05:35.862Z,14.00
2023-05-19T07:10:39.851Z,14.20
2023-05-19T07:20:49.666Z,14.50
2023-05-19T07:25:56.511Z,14.70
2023-05-19T07:36:05.983Z,15.20
2023-05-19T07:46:13.512Z,15.30
2023-05-19T07:51:19.408Z,15.40
2023-05-19T07:56:24.804Z,15.50
2023-05-19T08:01:28.446Z,15.70
2023-05-19T08:06:33.808Z,15.90
2023-05-19T08:11:37.412Z,16.10
2023-05-19T08:16:42.308Z,16.40
2023-05-19T08:21:48.382Z,16.70
2023-05-19T08:26:52.023Z,17.00
2023-05-19T08:31:55.682Z,17.30
2023-05-19T08:37:00.820Z,17.70
2023-05-19T08:42:04.475Z,18.20
2023-05-19T08:47:13.405Z,18.70
2023-05-19T08:52:26.386Z,19.20
2023-05-19T08:57:30.160Z,19.80
2023-05-19T09:02:34.427Z,20.50
2023-05-19T09:07:40.747Z,21.20
2023-05-19T09:12:47.145Z,21.90
2023-05-19T09:17:50.791Z,22.40
2023-05-19T09:22:55.760Z,22.90
2023-05-19T09:27:59.315Z,23.10
2023-05-19T09:33:04.574Z,23.10
2023-05-19T09:38:09.514Z,23.30
2023-05-19T09:43:13.655Z,23.80
2023-05-19T09:48:17.248Z,24.40
2023-05-19T09:53:22.617Z,24.80
2023-05-19T09:58:27.165Z,25.20
2023-05-19T10:03:32.652Z,25.70
2023-05-19T10:08:38.809Z,25.90
2023-05-19T10:13:42.755Z,26.20
2023-05-19T10:18:46.411Z,26.50
2023-05-19T10:23:51.390Z,26.80
2023-05-19T10:28:55.419Z,27.10
2023-05-19T10:34:15.293Z,27.20
2023-05-19T10:39:23.981Z,27.50
2023-05-19T10:44:39.015Z,27.80
2023-05-19T10:49:42.642Z,27.80
2023-05-19T10:54:47.562Z,27.90
2023-05-19T10:59:51.341Z,27.90
2023-05-19T11:04:58.412Z,27.80
2023-05-19T11:10:07.546Z,28.00
2023-05-19T11:15:15.806Z,28.10
2023-05-19T11:20:24.583Z,28.20
2023-05-19T11:25:45.647Z,28.30
2023-05-19T11:30:51.890Z,28.30
2023-05-19T11:35:58.828Z,28.30
2023-05-19T11:41:04.916Z,28.50
2023-05-19T11:46:10.602Z,28.60
2023-05-19T11:51:14.403Z,28.80
2023-05-19T11:56:19.341Z,29.10
2023-05-19T12:01:26.582Z,29.20
2023-05-19T12:06:31.154Z,29.00
2023-05-19T12:11:36.226Z,28.60
2023-05-19T12:16:39.879Z,28.30
2023-05-19T12:21:43.919Z,27.80
2023-05-19T12:26:50.368Z,27.50
2023-05-19T12:31:54.668Z,27.40
2023-05-19T12:36:58.695Z,27.50
2023-05-19T12:42:09.716Z,27.60
2023-05-19T12:47:13.490Z,27.50
2023-05-19T12:52:17.286Z,27.40
2023-05-19T12:57:23.252Z,27.40
2023-05-19T13:02:27.242Z,27.40
2023-05-19T13:07:30.850Z,27.20
2023-05-19T13:12:35.874Z,27.00
2023-05-19T13:17:39.484Z,26.80
2023-05-19T13:22:43.253Z,26.70
2023-05-19T13:27:49.666Z,26.50
2023-05-19T13:32:53.532Z,26.50
2023-05-19T13:37:57.088Z,26.20
2023-05-19T13:43:02.482Z,26.00
2023-05-19T13:48:07.482Z,25.70
2023-05-19T13:53:11.761Z,25.30
2023-05-19T13:58:17.708Z,25.00
2023-05-19T14:03:21.602Z,24.70
2023-05-19T14:08:26.034Z,24.30
2023-05-19T14:13:34.471Z,24.00
2023-05-19T14:18:40.781Z,23.60
2023-05-19T14:23:44.356Z,23.30
2023-05-19T14:28:49.254Z,23.00
2023-05-19T14:33:52.944Z,22.90
2023-05-19T14:38:56.776Z,22.70
2023-05-19T14:44:01.739Z,22.50
2023-05-19T14:49:06.528Z,22.50
2023-05-19T14:54:10.183Z,22.60
2023-05-19T14:59:15.229Z,22.70
2023-05-19T15:04:18.923Z,22.90
2023-05-19T15:09:22.551Z,23.00
2023-05-19T15:14:27.908Z,23.00
2023-05-19T15:19:33.091Z,23.00
2023-05-19T15:24:36.791Z,23.10
2023-05-19T15:29:41.706Z,23.20
2023-05-19T15:34:45.271Z,23.30
2023-05-19T15:39:48.810Z,23.10
2023-05-19T15:44:53.711Z,22.90
2023-05-19T15:49:57.282Z,22.80
2023-05-19T15:55:00.960Z,22.60
2023-05-19T16:00:06.944Z,22.30
2023-05-19T16:05:10.765Z,22.20
2023-05-19T16:10:14.366Z,22.00
2023-05-19T16:15:19.608Z,22.00
2023-05-19T16:20:26.870Z,21.90
2023-05-19T16:25:30.764Z,21.80
2023-05-19T16:30:36.056Z,21.70
2023-05-19T16:35:39.938Z,21.60
2023-05-19T16:40:44.634Z,21.60
2023-05-19T16:45:49.543Z,21.60
2023-05-19T16:50:53.102Z,21.50
2023-05-19T16:55:58.957Z,21.40
2023-05-19T17:01:04.340Z,21.20
2023-05-19T17:06:07.939Z,21.00
2023-05-19T17:11:11.492Z,20.70
2023-05-19T17:16:16.443Z,20.50
2023-05-19T17:21:20.101Z,20.30
2023-05-19T17:26:23.761Z,20.10
2023-05-19T17:31:28.684Z,20.10
2023-05-19T17:36:32.339Z,20.00
2023-05-19T17:41:35.981Z,19.90
2023-05-19T17:46:40.993Z,19.90
2023-05-19T17:51:45.110Z,19.80
2023-05-19T17:56:49.874Z,19.70
2023-05-19T18:01:55.580Z,19.70
2023-05-19T18:07:00.849Z,19.50
2023-05-19T18:12:05.392Z,19.40
2023-05-19T18:17:10.177Z,19.30
2023-05-19T18:22:14.916Z,20.60
2023-05-19T18:27:18.559Z,18.90
2023-05-19T18:32:23.657Z,18.80
2023-05-19T18:37:28.478Z,18.80
2023-05-19T18:42:32.094Z,18.70
2023-05-19T18:47:37.030Z,18.60
2023-05-19T18:52:40.844Z,18.50
2023-05-19T18:57:44.428Z,18.40
2023-05-19T19:02:49.554Z,18.40
2023-05-19T19:07:53.408Z,18.30
2023-05-19T19:12:57.840Z,18.20
2023-05-19T19:18:02.798Z,18.20
2023-05-19T19:23:06.866Z,18.10
2023-05-19T19:28:10.707Z,18.00
2023-05-19T19:33:15.793Z,17.90
2023-05-19T19:38:19.414Z,17.80
2023-05-19T19:48:28.384Z,17.60
2023-05-19T19:53:31.957Z,17.50
2023-05-19T19:58:35.545Z,17.40
2023-05-19T20:03:40.906Z,17.20
2023-05-19T20:08:44.620Z,17.10
2023-05-19T20:13:48.150Z,16.90
2023-05-19T20:18:53.163Z,16.70
2023-05-19T20:23:56.771Z,16.60
2023-05-19T20:29:00.439Z,16.60
2023-05-19T20:34:05.588Z,16.40
2023-05-19T20:39:09.738Z,16.30
2023-05-19T20:49:20.516Z,16.20
2023-05-19T20:54:24.162Z,16.10
2023-05-19T21:04:33.936Z,15.80
2023-05-19T21:09:37.537Z,15.70
2023-05-19T21:14:41.092Z,15.60
2023-05-19T21:19:45.971Z,15.50
2023-05-19T21:24:49.567Z,15.40
2023-05-19T21:29:54.238Z,15.30
2023-05-19T21:34:59.980Z,15.20
2023-05-19T21:40:03.690Z,15.10
2023-05-19T21:45:08.364Z,15.00
2023-05-19T21:50:15.721Z,14.90
2023-05-19T22:00:25.740Z,14.80
2023-05-19T22:05:32.378Z,14.80
2023-05-19T22:20:46.840Z,14.60
2023-05-19T22:25:50.621Z,14.60
